Terminal Aerodrome Forecast
Issued by NWS

Current Version | Previous Version | Graphics & Text | Print | Product List | Glossary On
Versions: 1 2 3 4 5 6 7 8 9 10 11 12 13 14 15 16 17 18 19 20 21 22 23 24 25 26 27
993
FTUS41 KRLX 140528
TAFCKB
TAF
KCKB 140528Z 1406/1506 23013G21KT 6SM -RASN OVC040
     FM140730 24013G22KT 6SM -SHSN OVC030
     FM140900 26014G29KT 5SM -SHSN OVC015
     FM141200 27011G21KT P6SM BKN015
     FM141400 28010G17KT P6SM BKN020
     FM141600 31006KT P6SM BKN030
     FM142200 00000KT P6SM BKN035=

USA.gov is the U.S. government's official web portal to all federal, state and local government web resources and services.